Pagina principale
METAR-TAF:

METAR-TAF

Aeroporti :

Aeroporto di Belgrado-Nikola Tesla

Belgrado, Serbia

latitudine: 44-49N, longitudine: 020-17E, altezza: 96 m

Osservazione

Il bollettino è stato emesso 33 minuti fa, alle 21:30 UTC
Vento 16 kt da est
Temperature 2°C
Umidità 69%
Pressione 1029 hPa
Visibilità 10 km o più
nessuna nube inferiore a 1500 m e nessun cumulonembo

METAR: LYBE 172130Z 10016KT CAVOK 02/M03 Q1029 NOSIG

Ora: 23:03 (22:03 UTC)

Previsione

Il bollettino è stato emesso 5 ore e 3 minuti fa, alle 17:00 UTC
Previsione valida dal 17 alle 18 UTC al 18 alle 18 UTC
Vento 14 kt da est
Visibilità 10 km o più
Nubi sparse ad un'altezza di 4000 ft
Evoluzione graduale
dal 18 alle 15 UTC al 18 alle 17 UTC
Visibilità: 5000 m
pioggia

TAF: LYBE 171700Z 1718/1818 10014KT 9999 SCT040 TX05/1812Z TN01/1805Z BECMG 1815/1817 5000 RA

Osservazioni e previsioni meteorologiche di più di 4000 aeroporti (messaggi METAR e TAF).

Le stazioni disponibili sono rappresentate dai dischi gialli e rossi sulla carta.

Puntare il mouse per vedere il nome della stazione.

Clicca sopra per visualizzare le osservazioni e previsioni meteorologiche.

Per cambiare la mappa : fare clic sui pulsanti verdi con una croce nera per ingrandire, il pulsante verde con un trattino per diminuire, o sulla freccia verde per le mappe adiacenti.


METAR-TAF: